Time;durP1;ratioP1;P1;durP2;ratioP2;P2;SDS_P1;SDS_P2;PMS_P1;PMS_P2;Temp;Humidity;BMP_temperature;BMP_pressure;BME280_temperature;BME280_humidity;BME280_pressure;Samples;Min_cycle;Max_cycle;Signal;HPM_P1;HPM_P2
2021/01/24 00:00:04;;;;;;;43.90;26.58;;;2.00;99.90;;;;;;5027130;28;20139;-76
2021/01/24 00:02:39;;;;;;;46.72;27.02;;;2.00;99.90;;;;;;5039077;28;20049;-76
2021/01/24 00:05:06;;;;;;;49.97;28.90;;;2.00;99.90;;;;;;5019449;28;20712;-76
2021/01/24 00:07:33;;;;;;;48.65;28.92;;;2.00;99.90;;;;;;5008350;28;20061;-76
2021/01/24 00:09:59;;;;;;;47.75;28.38;;;1.90;99.90;;;;;;5024238;28;20135;-76
2021/01/24 00:12:26;;;;;;;43.40;27.95;;;2.00;99.90;;;;;;5025072;28;20638;-75
2021/01/24 00:14:52;;;;;;;44.53;28.20;;;1.90;99.90;;;;;;5008159;28;20077;-76
2021/01/24 00:17:19;;;;;;;50.55;30.23;;;1.90;99.90;;;;;;5007825;28;20041;-76
2021/01/24 00:19:45;;;;;;;47.15;28.10;;;1.90;99.90;;;;;;5007817;28;20225;-75
2021/01/24 00:22:12;;;;;;;52.67;31.60;;;1.80;99.90;;;;;;5004333;28;20136;-76
2021/01/24 00:24:38;;;;;;;56.38;31.63;;;1.80;99.90;;;;;;5004694;28;20121;-76
2021/01/24 00:27:05;;;;;;;48.88;29.45;;;1.70;99.90;;;;;;5004344;28;20062;-76
2021/01/24 00:29:31;;;;;;;42.65;23.95;;;1.70;99.90;;;;;;5008485;28;20725;-76
2021/01/24 00:31:58;;;;;;;47.80;29.08;;;1.70;99.90;;;;;;4986376;28;20045;-76
2021/01/24 00:34:25;;;;;;;49.80;27.38;;;1.70;99.90;;;;;;5008056;28;20140;-76
2021/01/24 00:36:52;;;;;;;48.33;27.02;;;1.60;99.90;;;;;;5008726;28;20057;-76
2021/01/24 00:39:18;;;;;;;46.63;26.80;;;1.50;99.90;;;;;;5008349;28;20148;-76
2021/01/24 00:41:45;;;;;;;37.00;23.85;;;1.60;99.90;;;;;;5007030;28;20507;-77
2021/01/24 00:44:12;;;;;;;39.45;23.65;;;1.50;99.90;;;;;;5023774;28;20063;-76
2021/01/24 00:46:39;;;;;;;38.00;23.58;;;1.50;99.90;;;;;;5051571;28;20502;-77
2021/01/24 00:49:05;;;;;;;34.15;21.63;;;1.50;99.90;;;;;;5065224;28;20521;-77
2021/01/24 00:51:31;;;;;;;30.63;20.77;;;1.50;99.90;;;;;;5020466;28;20141;-77
2021/01/24 00:53:59;;;;;;;37.85;21.38;;;1.50;99.90;;;;;;5023322;28;20051;-76
2021/01/24 00:56:26;;;;;;;35.08;22.13;;;1.50;99.90;;;;;;5012323;28;20057;-77
2021/01/24 00:58:52;;;;;;;35.45;20.95;;;1.50;99.90;;;;;;5046755;28;20044;-77
2021/01/24 01:01:18;;;;;;;34.10;21.00;;;1.50;99.90;;;;;;5018801;28;20049;-77
2021/01/24 01:03:45;;;;;;;34.92;20.75;;;1.50;99.90;;;;;;5001339;28;20115;-77
2021/01/24 01:06:11;;;;;;;31.75;19.75;;;1.50;99.90;;;;;;5009342;28;20060;-77
2021/01/24 01:08:38;;;;;;;32.72;20.27;;;1.50;99.90;;;;;;5010267;28;20041;-78
2021/01/24 01:11:05;;;;;;;33.78;20.50;;;1.50;99.90;;;;;;5026268;28;20057;-77
2021/01/24 01:13:31;;;;;;;30.95;19.33;;;1.50;99.90;;;;;;5028327;28;20076;-77
2021/01/24 01:15:58;;;;;;;32.67;19.27;;;1.50;99.90;;;;;;5026752;28;20869;-76
2021/01/24 01:18:24;;;;;;;35.78;20.63;;;1.40;99.90;;;;;;4997408;28;20049;-77
2021/01/24 01:20:50;;;;;;;29.52;17.05;;;1.40;99.90;;;;;;5000595;28;20058;-77
2021/01/24 01:23:17;;;;;;;33.55;20.38;;;1.30;99.90;;;;;;4994615;28;20157;-77
2021/01/24 01:25:43;;;;;;;32.38;19.65;;;1.30;99.90;;;;;;5011213;28;20490;-78
2021/01/24 01:28:10;;;;;;;31.55;18.92;;;1.30;99.90;;;;;;4994423;28;20386;-77
2021/01/24 01:30:36;;;;;;;30.95;18.88;;;1.30;99.90;;;;;;5004548;28;20052;-76
2021/01/24 01:33:03;;;;;;;30.33;17.70;;;1.30;99.90;;;;;;5010958;28;20057;-77
2021/01/24 01:35:30;;;;;;;32.17;18.10;;;1.30;99.90;;;;;;5030425;28;20054;-77
2021/01/24 01:37:56;;;;;;;31.60;18.55;;;1.30;99.90;;;;;;5013536;28;20045;-77
2021/01/24 01:40:23;;;;;;;27.08;16.83;;;1.20;99.90;;;;;;4993614;28;20054;-77
2021/01/24 01:42:49;;;;;;;31.88;16.98;;;1.30;99.90;;;;;;4992469;28;20096;-76
2021/01/24 01:45:16;;;;;;;22.15;13.65;;;1.30;99.90;;;;;;5003615;28;20042;-76
2021/01/24 01:47:42;;;;;;;23.80;15.50;;;1.30;99.90;;;;;;5035772;28;20048;-76
2021/01/24 01:50:09;;;;;;;28.15;16.42;;;1.20;99.90;;;;;;5043387;28;20041;-76
2021/01/24 01:52:36;;;;;;;24.02;15.38;;;1.20;99.90;;;;;;5012823;28;20037;-77
2021/01/24 01:55:04;;;;;;;23.33;14.88;;;1.30;99.90;;;;;;5013066;28;20482;-77
2021/01/24 01:57:31;;;;;;;23.95;14.70;;;1.20;99.90;;;;;;4996823;28;20058;-76
2021/01/24 01:59:57;;;;;;;24.92;14.70;;;1.30;99.90;;;;;;5024827;28;20124;-77
2021/01/24 02:02:41;;;;;;;25.35;14.20;;;1.30;99.90;;;;;;5001681;28;20119;-77
2021/01/24 02:05:30;;;;;;;22.42;13.05;;;1.30;99.90;;;;;;5003821;28;20061;-77
2021/01/24 02:08:14;;;;;;;21.17;14.18;;;1.40;99.90;;;;;;5029046;28;20056;-77
2021/01/24 02:10:51;;;;;;;22.35;12.85;;;1.30;99.90;;;;;;5007432;28;20060;-77
2021/01/24 02:13:36;;;;;;;24.48;14.52;;;1.20;99.90;;;;;;5013566;28;20050;-77
2021/01/24 02:16:05;;;;;;;21.48;13.10;;;1.20;99.90;;;;;;5029894;28;20057;-76
2021/01/24 02:18:34;;;;;;;21.30;13.35;;;1.30;99.90;;;;;;5013189;28;20049;-76
2021/01/24 02:21:22;;;;;;;21.05;13.60;;;1.20;99.90;;;;;;5012915;28;20124;-76
2021/01/24 02:23:52;;;;;;;18.40;12.32;;;1.20;99.90;;;;;;5025786;28;20057;-77
2021/01/24 02:26:50;;;;;;;18.83;12.35;;;1.20;99.90;;;;;;5009996;28;20671;-77
2021/01/24 02:29:28;;;;;;;22.05;13.60;;;1.20;99.90;;;;;;5002774;28;20072;-76
2021/01/24 02:31:59;;;;;;;18.67;12.65;;;1.30;99.90;;;;;;5012689;28;20077;-76
2021/01/24 02:34:30;;;;;;;19.38;12.07;;;1.30;99.90;;;;;;5019570;28;20053;-76
2021/01/24 02:37:02;;;;;;;19.98;12.93;;;1.20;99.90;;;;;;4995900;28;20037;-76
2021/01/24 02:39:29;;;;;;;17.50;11.60;;;1.20;99.90;;;;;;5028123;28;20068;-77
2021/01/24 02:41:55;;;;;;;21.77;12.80;;;1.20;99.90;;;;;;5029738;28;20107;-76
2021/01/24 02:44:23;;;;;;;18.15;12.55;;;1.20;99.90;;;;;;4999354;28;20508;-76
2021/01/24 02:46:49;;;;;;;16.30;11.07;;;1.20;99.90;;;;;;5007471;28;20041;-77
2021/01/24 02:49:17;;;;;;;19.52;11.85;;;1.20;99.90;;;;;;5002042;28;20073;-77
2021/01/24 02:51:44;;;;;;;15.27;11.15;;;1.20;99.90;;;;;;5011126;28;20057;-77
2021/01/24 02:54:12;;;;;;;16.27;10.73;;;1.30;99.90;;;;;;5011201;28;20046;-77
2021/01/24 02:56:38;;;;;;;15.73;9.98;;;1.30;99.90;;;;;;5029300;28;20569;-77
2021/01/24 02:59:05;;;;;;;15.15;10.30;;;1.20;99.90;;;;;;5008015;28;20086;-77
2021/01/24 03:01:32;;;;;;;16.15;10.65;;;1.20;99.90;;;;;;4992161;28;20085;-76
2021/01/24 03:03:58;;;;;;;16.17;10.68;;;1.20;99.90;;;;;;5010682;28;20140;-75
2021/01/24 03:06:25;;;;;;;16.70;10.48;;;1.10;99.90;;;;;;4993822;28;20077;-76
2021/01/24 03:08:52;;;;;;;18.92;11.90;;;1.20;99.90;;;;;;5009700;28;20147;-77
2021/01/24 03:11:21;;;;;;;19.73;11.40;;;1.20;99.90;;;;;;5027416;28;20136;-76
2021/01/24 03:14:03;;;;;;;19.92;10.63;;;1.20;99.90;;;;;;5026917;28;20052;-77
2021/01/24 03:16:31;;;;;;;16.73;10.05;;;1.20;99.90;;;;;;5026346;28;20053;-76
2021/01/24 03:18:59;;;;;;;16.02;10.13;;;1.10;99.90;;;;;;5022011;28;20054;-76
2021/01/24 03:21:26;;;;;;;15.38;9.98;;;1.10;99.90;;;;;;4988642;28;20056;-78
2021/01/24 03:23:54;;;;;;;18.30;10.65;;;1.10;99.90;;;;;;4993759;28;20049;-77
2021/01/24 03:26:21;;;;;;;17.67;10.93;;;1.00;99.90;;;;;;4993736;28;20519;-77
2021/01/24 03:28:47;;;;;;;17.80;11.48;;;1.10;99.90;;;;;;5009727;28;20049;-76
2021/01/24 03:31:14;;;;;;;15.32;10.02;;;1.10;99.90;;;;;;4993104;28;20041;-77
2021/01/24 03:33:41;;;;;;;18.25;11.85;;;1.20;99.90;;;;;;5008593;28;20046;-76
2021/01/24 03:36:08;;;;;;;17.13;9.95;;;1.10;99.90;;;;;;5004160;28;20142;-77
2021/01/24 03:38:34;;;;;;;23.95;12.10;;;1.20;99.90;;;;;;5025566;28;20412;-77
2021/01/24 03:41:01;;;;;;;20.45;11.90;;;1.30;99.90;;;;;;4997219;28;20053;-77
2021/01/24 03:43:27;;;;;;;15.90;10.50;;;1.20;99.90;;;;;;4993811;28;20058;-77
2021/01/24 03:45:54;;;;;;;16.63;10.65;;;1.20;99.90;;;;;;5021704;28;20546;-77
2021/01/24 03:48:20;;;;;;;17.52;10.00;;;1.20;99.90;;;;;;5013988;28;20419;-75
2021/01/24 03:50:48;;;;;;;15.40;10.18;;;1.20;99.90;;;;;;5044971;28;20095;-76
2021/01/24 03:53:14;;;;;;;19.45;10.80;;;1.20;99.90;;;;;;5029405;28;20075;-76
2021/01/24 03:55:41;;;;;;;18.42;10.82;;;1.10;99.90;;;;;;5045977;28;20072;-77
2021/01/24 03:58:07;;;;;;;18.38;11.07;;;1.20;99.90;;;;;;5029472;28;20153;-76
2021/01/24 04:00:33;;;;;;;17.50;10.93;;;1.20;99.90;;;;;;4996145;28;20057;-76
2021/01/24 04:03:00;;;;;;;22.33;12.77;;;1.20;99.90;;;;;;5028900;28;20128;-76
2021/01/24 04:05:26;;;;;;;22.52;11.40;;;1.30;99.90;;;;;;5029474;28;20514;-76
2021/01/24 04:07:53;;;;;;;20.52;12.38;;;1.20;99.90;;;;;;5029787;28;20053;-76
2021/01/24 04:10:19;;;;;;;21.27;12.35;;;1.10;99.90;;;;;;5027908;28;20044;-76
2021/01/24 04:12:46;;;;;;;20.38;12.18;;;1.10;99.90;;;;;;5012311;28;20130;-76
2021/01/24 04:15:13;;;;;;;20.90;12.52;;;1.10;99.90;;;;;;5038811;28;20090;-77
2021/01/24 04:17:40;;;;;;;20.15;11.98;;;1.10;99.90;;;;;;5044474;28;20140;-77
2021/01/24 04:20:07;;;;;;;25.60;13.65;;;1.20;99.90;;;;;;5027258;28;20053;-77
2021/01/24 04:22:34;;;;;;;22.67;13.07;;;1.10;99.90;;;;;;5038733;28;20081;-76
2021/01/24 04:25:00;;;;;;;22.33;13.50;;;1.20;99.90;;;;;;5045039;28;20426;-78
2021/01/24 04:27:27;;;;;;;22.08;12.75;;;1.30;99.90;;;;;;5030288;28;20524;-77
2021/01/24 04:29:53;;;;;;;24.02;13.80;;;1.30;99.90;;;;;;5029465;28;20044;-76
2021/01/24 04:32:20;;;;;;;25.02;14.18;;;1.20;99.90;;;;;;5028431;28;20552;-77
2021/01/24 04:34:46;;;;;;;26.83;15.38;;;1.20;99.90;;;;;;5029449;28;20080;-77
2021/01/24 04:37:13;;;;;;;25.25;14.52;;;1.20;99.90;;;;;;5029082;28;20064;-77
2021/01/24 04:39:39;;;;;;;26.63;14.27;;;1.20;99.90;;;;;;5029143;28;20057;-76
2021/01/24 04:42:06;;;;;;;27.60;15.93;;;1.20;99.90;;;;;;5043792;28;20049;-77
2021/01/24 04:44:35;;;;;;;31.05;16.85;;;1.20;99.90;;;;;;5041245;28;20136;-77
2021/01/24 04:47:02;;;;;;;31.35;17.08;;;1.20;99.90;;;;;;5045490;28;20121;-77
2021/01/24 04:49:29;;;;;;;30.25;17.85;;;1.20;99.90;;;;;;5013993;28;20041;-76
2021/01/24 04:51:55;;;;;;;33.05;17.77;;;1.30;99.90;;;;;;5011415;28;20049;-75
2021/01/24 04:54:22;;;;;;;31.98;17.98;;;1.20;99.90;;;;;;5029210;28;20076;-76
2021/01/24 04:56:50;;;;;;;30.63;18.38;;;1.10;99.90;;;;;;5044203;28;20048;-77
2021/01/24 04:59:16;;;;;;;32.40;18.20;;;1.20;99.90;;;;;;5029693;28;20069;-77
2021/01/24 05:01:44;;;;;;;32.60;18.20;;;1.20;99.90;;;;;;5045740;28;20395;-78
2021/01/24 05:04:13;;;;;;;38.55;19.00;;;1.30;99.90;;;;;;5046390;28;20053;-78
2021/01/24 05:06:40;;;;;;;37.75;18.70;;;1.20;99.90;;;;;;5013211;28;20412;-76
2021/01/24 05:09:06;;;;;;;31.30;17.60;;;1.20;99.90;;;;;;5010469;28;20061;-76
2021/01/24 05:11:33;;;;;;;33.75;18.55;;;1.20;99.90;;;;;;5003607;28;20084;-76
2021/01/24 05:14:16;;;;;;;27.05;16.38;;;1.30;99.90;;;;;;5045870;28;20099;-77
2021/01/24 05:16:43;;;;;;;31.85;18.70;;;1.30;99.90;;;;;;5009601;28;20148;-77
2021/01/24 05:19:10;;;;;;;32.97;17.27;;;1.30;99.90;;;;;;5026872;28;20163;-77
2021/01/24 05:21:38;;;;;;;29.10;16.98;;;1.30;99.90;;;;;;5006578;28;20144;-77
2021/01/24 05:24:17;;;;;;;33.20;16.75;;;1.40;99.90;;;;;;5043371;28;20331;-77
2021/01/24 05:26:45;;;;;;;30.90;16.83;;;1.30;99.90;;;;;;5025977;28;20545;-76
2021/01/24 05:29:23;;;;;;;31.38;17.13;;;1.30;99.90;;;;;;5044756;28;20737;-77
2021/01/24 05:31:51;;;;;;;34.33;18.08;;;1.30;99.90;;;;;;5026170;28;20506;-77
2021/01/24 05:34:26;;;;;;;30.67;18.80;;;1.30;99.90;;;;;;5029638;28;20071;-77
2021/01/24 05:36:53;;;;;;;35.35;18.90;;;1.30;99.90;;;;;;5029438;28;20052;-76
2021/01/24 05:39:20;;;;;;;36.17;18.42;;;1.40;99.90;;;;;;5030753;28;20151;-77
2021/01/24 05:41:48;;;;;;;41.58;20.85;;;1.50;99.90;;;;;;5029016;28;20049;-77
2021/01/24 05:44:16;;;;;;;31.88;17.10;;;1.40;99.90;;;;;;5029748;28;20048;-77
2021/01/24 05:46:44;;;;;;;29.75;17.25;;;1.30;99.90;;;;;;5029029;28;20053;-78
2021/01/24 05:49:12;;;;;;;26.83;14.85;;;1.30;99.90;;;;;;5029320;28;20052;-76
2021/01/24 05:51:40;;;;;;;26.25;14.63;;;1.40;99.90;;;;;;5045245;28;20052;-76
2021/01/24 05:54:06;;;;;;;32.10;16.50;;;1.40;99.90;;;;;;5044618;28;20049;-77
2021/01/24 05:56:33;;;;;;;26.90;15.30;;;1.40;99.90;;;;;;5011463;28;20045;-78
2021/01/24 05:59:01;;;;;;;27.77;14.50;;;1.20;99.90;;;;;;5028324;28;20131;-77
2021/01/24 06:01:29;;;;;;;29.83;15.48;;;1.30;99.90;;;;;;5028487;28;20546;-77
2021/01/24 06:03:58;;;;;;;27.05;15.95;;;1.30;99.90;;;;;;5046671;28;20275;-77
2021/01/24 06:06:24;;;;;;;26.35;15.20;;;1.40;99.90;;;;;;5012920;28;20046;-77
2021/01/24 06:08:51;;;;;;;27.00;14.55;;;1.40;99.90;;;;;;4996656;28;20053;-77
2021/01/24 06:11:19;;;;;;;26.80;14.25;;;1.40;99.90;;;;;;5027034;28;20096;-77
2021/01/24 06:13:47;;;;;;;25.08;14.52;;;1.30;99.90;;;;;;5026266;28;20057;-77
2021/01/24 06:16:46;;;;;;;24.48;14.45;;;1.30;99.90;;;;;;5048641;28;20067;-78
2021/01/24 06:19:18;;;;;;;26.17;14.30;;;1.30;99.90;;;;;;5021035;28;20072;-77
2021/01/24 06:21:53;;;;;;;25.63;14.65;;;1.40;99.90;;;;;;5014110;28;20068;-77
2021/01/24 06:24:28;;;;;;;27.90;15.95;;;1.30;99.90;;;;;;5030467;28;20054;-77
2021/01/24 06:27:00;;;;;;;28.77;15.95;;;1.30;99.90;;;;;;5014186;28;20110;-77
2021/01/24 06:29:29;;;;;;;29.50;17.50;;;1.40;99.90;;;;;;5047124;28;20589;-76
2021/01/24 06:31:56;;;;;;;24.95;14.57;;;1.30;99.90;;;;;;5012995;28;20076;-76
2021/01/24 06:34:34;;;;;;;30.02;15.50;;;1.30;99.90;;;;;;5046688;28;20045;-76
2021/01/24 06:37:08;;;;;;;33.33;16.63;;;1.20;99.90;;;;;;5030718;28;20514;-76
2021/01/24 06:40:04;;;;;;;24.17;14.38;;;1.30;99.90;;;;;;5046908;28;20052;-76
2021/01/24 06:42:34;;;;;;;31.38;16.50;;;1.40;99.90;;;;;;5009786;28;20260;-76
2021/01/24 06:45:01;;;;;;;23.50;12.07;;;1.40;99.90;;;;;;5032575;28;20116;-76
2021/01/24 06:47:39;;;;;;;21.98;11.88;;;1.40;99.90;;;;;;5010679;28;20045;-75
2021/01/24 06:50:33;;;;;;;21.52;13.65;;;1.40;99.90;;;;;;5026453;28;20045;-76
2021/01/24 06:53:09;;;;;;;20.60;13.50;;;1.40;99.90;;;;;;5010352;28;20049;-76
2021/01/24 06:55:38;;;;;;;21.92;13.75;;;1.30;99.90;;;;;;5005345;28;20061;-75
2021/01/24 06:58:33;;;;;;;25.48;13.52;;;1.40;99.90;;;;;;4989189;28;20045;-75
2021/01/24 07:01:25;;;;;;;21.75;13.38;;;1.40;99.90;;;;;;5017794;28;20495;-75
2021/01/24 07:04:16;;;;;;;23.42;13.45;;;1.50;99.90;;;;;;5022904;28;20624;-76
2021/01/24 07:06:58;;;;;;;24.20;13.88;;;1.50;99.90;;;;;;5004766;28;20046;-76
2021/01/24 07:09:24;;;;;;;23.48;13.73;;;1.50;99.90;;;;;;4989740;28;20045;-75
2021/01/24 07:11:52;;;;;;;19.83;13.93;;;1.50;99.90;;;;;;5006096;28;20057;-75
2021/01/24 07:14:37;;;;;;;24.67;14.55;;;1.50;99.90;;;;;;4972743;28;20074;-75
2021/01/24 07:17:09;;;;;;;24.80;13.82;;;1.50;99.90;;;;;;4987430;28;20081;-76
2021/01/24 07:19:48;;;;;;;23.10;14.45;;;1.50;99.90;;;;;;4994373;28;20559;-75
2021/01/24 07:22:16;;;;;;;24.27;14.27;;;1.40;99.90;;;;;;4988002;28;20046;-74
2021/01/24 07:24:44;;;;;;;22.25;13.82;;;1.40;99.90;;;;;;4995027;28;20119;-76
2021/01/24 07:27:16;;;;;;;26.83;14.50;;;1.50;99.90;;;;;;4991265;28;20999;-75
2021/01/24 07:29:44;;;;;;;23.23;13.82;;;1.50;99.90;;;;;;5008094;28;20515;-75
2021/01/24 07:32:18;;;;;;;22.10;13.88;;;1.40;99.90;;;;;;4978793;28;20151;-74
2021/01/24 07:34:47;;;;;;;26.20;14.52;;;1.50;99.90;;;;;;5008612;28;20046;-75
2021/01/24 07:37:14;;;;;;;21.50;14.70;;;1.50;99.90;;;;;;5024480;28;20314;-75
2021/01/24 07:39:42;;;;;;;24.38;14.85;;;1.50;99.90;;;;;;5024935;28;20055;-74
2021/01/24 07:42:10;;;;;;;21.98;14.80;;;1.50;99.90;;;;;;5007194;28;20041;-74
2021/01/24 07:44:38;;;;;;;24.73;14.07;;;1.50;99.90;;;;;;5008346;28;20507;-75
2021/01/24 07:47:06;;;;;;;25.48;14.70;;;1.50;99.90;;;;;;5041427;28;20068;-75
2021/01/24 07:49:32;;;;;;;23.00;14.15;;;1.50;99.90;;;;;;5053497;28;20387;-75
2021/01/24 07:51:59;;;;;;;26.70;14.63;;;1.40;99.90;;;;;;5028046;28;20496;-75
2021/01/24 07:54:26;;;;;;;27.00;14.73;;;1.40;99.90;;;;;;4987963;28;20516;-75
2021/01/24 07:56:52;;;;;;;22.45;13.48;;;1.40;99.90;;;;;;5024130;28;20057;-75
2021/01/24 07:59:20;;;;;;;18.70;12.82;;;1.30;99.90;;;;;;4991019;28;20045;-76
2021/01/24 08:01:46;;;;;;;20.58;12.30;;;1.30;99.90;;;;;;5004991;28;20409;-75
2021/01/24 08:04:13;;;;;;;21.85;13.40;;;1.40;99.90;;;;;;5006656;28;20046;-75
2021/01/24 08:06:40;;;;;;;22.35;13.45;;;1.30;99.90;;;;;;5006424;28;20050;-75
2021/01/24 08:09:08;;;;;;;28.48;15.52;;;1.40;99.90;;;;;;5008859;28;20130;-75
2021/01/24 08:11:36;;;;;;;26.20;14.63;;;1.40;99.90;;;;;;5007702;28;20050;-75
2021/01/24 08:14:03;;;;;;;22.05;14.73;;;1.40;99.90;;;;;;5005720;28;20056;-75
2021/01/24 08:16:38;;;;;;;24.75;13.50;;;1.30;99.90;;;;;;4988815;28;20520;-75
2021/01/24 08:19:06;;;;;;;20.50;12.38;;;1.40;99.90;;;;;;5014671;28;20053;-75
2021/01/24 08:21:33;;;;;;;19.45;11.85;;;1.40;99.90;;;;;;5008927;28;20068;-74
2021/01/24 08:24:01;;;;;;;18.17;11.43;;;1.20;99.90;;;;;;5008243;28;20140;-74
2021/01/24 08:26:28;;;;;;;17.88;12.48;;;1.20;99.90;;;;;;5021151;28;20041;-74
2021/01/24 08:28:56;;;;;;;19.85;11.48;;;1.30;99.90;;;;;;5003957;28;20065;-75
2021/01/24 08:31:23;;;;;;;17.60;11.48;;;1.40;99.90;;;;;;4991181;28;20062;-75
2021/01/24 08:33:54;;;;;;;17.95;11.10;;;1.40;99.90;;;;;;5002650;28;20049;-74
2021/01/24 08:36:24;;;;;;;16.00;11.73;;;1.50;99.90;;;;;;5024251;28;20148;-74
2021/01/24 08:38:55;;;;;;;17.77;12.85;;;1.50;99.90;;;;;;5008855;28;20088;-75
2021/01/24 08:41:37;;;;;;;19.35;12.70;;;1.50;99.90;;;;;;5024241;28;20172;-75
2021/01/24 08:44:13;;;;;;;12.98;10.50;;;1.60;99.90;;;;;;5018431;28;20050;-75
2021/01/24 08:46:42;;;;;;;14.30;9.95;;;1.50;99.90;;;;;;5050105;28;20055;-76
2021/01/24 08:49:19;;;;;;;10.82;9.70;;;1.60;99.90;;;;;;5047686;28;20051;-76
2021/01/24 08:51:53;;;;;;;9.25;8.30;;;1.70;99.90;;;;;;5063829;28;20550;-75
2021/01/24 08:54:25;;;;;;;8.27;7.45;;;1.70;99.90;;;;;;5024141;28;20064;-75
2021/01/24 08:57:07;;;;;;;9.15;8.35;;;1.70;99.90;;;;;;5020917;28;20111;-76
2021/01/24 08:59:34;;;;;;;11.32;8.95;;;1.70;99.90;;;;;;5019632;28;20049;-75
2021/01/24 09:02:01;;;;;;;10.25;9.10;;;1.70;99.90;;;;;;4997313;28;20069;-76
2021/01/24 09:04:32;;;;;;;8.85;7.95;;;1.70;99.90;;;;;;5023892;28;20051;-75
2021/01/24 09:06:59;;;;;;;9.80;8.82;;;1.70;99.90;;;;;;4991676;28;20107;-76
2021/01/24 09:09:29;;;;;;;10.70;9.60;;;1.70;99.90;;;;;;5023714;28;20135;-76
2021/01/24 09:11:57;;;;;;;10.65;9.57;;;1.70;99.90;;;;;;5002343;28;20111;-77
2021/01/24 09:14:23;;;;;;;10.77;9.70;;;1.70;99.90;;;;;;5020181;28;20072;-77
2021/01/24 09:17:02;;;;;;;9.95;8.95;;;1.60;99.90;;;;;;5019788;28;20057;-77
2021/01/24 09:19:29;;;;;;;8.65;7.80;;;1.60;99.90;;;;;;5011676;28;20060;-77
2021/01/24 09:21:56;;;;;;;7.85;7.25;;;1.60;99.90;;;;;;5006352;28;20103;-76
2021/01/24 09:24:23;;;;;;;8.48;7.68;;;1.60;99.90;;;;;;4987122;28;20541;-77
2021/01/24 09:26:50;;;;;;;6.45;5.95;;;1.60;99.90;;;;;;5024356;28;20136;-76
2021/01/24 09:29:16;;;;;;;8.00;7.38;;;1.50;99.90;;;;;;5007648;28;20057;-76
2021/01/24 09:31:44;;;;;;;6.65;6.10;;;1.50;99.90;;;;;;5024084;28;20144;-76
2021/01/24 09:34:11;;;;;;;5.95;5.55;;;1.50;99.90;;;;;;5026202;28;20081;-76
2021/01/24 09:36:37;;;;;;;6.70;6.20;;;1.30;99.90;;;;;;5008246;28;20133;-77
2021/01/24 09:39:05;;;;;;;7.85;7.15;;;1.30;99.90;;;;;;5026566;28;20054;-77
2021/01/24 09:41:32;;;;;;;6.20;5.70;;;1.30;99.90;;;;;;4994727;28;20053;-76
2021/01/24 09:44:00;;;;;;;6.88;6.38;;;1.30;99.90;;;;;;5024394;28;20050;-77
2021/01/24 09:46:28;;;;;;;7.07;6.38;;;1.30;99.90;;;;;;5007068;28;20060;-76
2021/01/24 09:48:55;;;;;;;6.70;6.13;;;1.30;99.90;;;;;;4987003;28;20054;-76
2021/01/24 09:51:21;;;;;;;6.75;6.15;;;1.30;99.90;;;;;;5007823;28;20119;-75
2021/01/24 09:53:49;;;;;;;6.00;5.50;;;1.30;99.90;;;;;;5027693;28;20053;-75
2021/01/24 09:56:16;;;;;;;6.82;6.22;;;1.30;99.90;;;;;;5027374;28;20056;-76
2021/01/24 09:58:42;;;;;;;6.05;5.55;;;1.40;99.90;;;;;;4995790;28;20681;-76
2021/01/24 10:01:09;;;;;;;8.68;7.88;;;1.40;99.90;;;;;;5027542;28;20115;-76
2021/01/24 10:03:36;;;;;;;10.63;8.02;;;1.40;99.90;;;;;;5003153;28;20081;-75
2021/01/24 10:06:04;;;;;;;8.65;7.85;;;1.40;99.90;;;;;;5010514;28;20065;-76
2021/01/24 10:08:32;;;;;;;9.40;8.50;;;1.40;99.90;;;;;;4995297;28;20512;-76
2021/01/24 10:10:59;;;;;;;8.93;8.02;;;1.40;99.90;;;;;;5021945;28;20049;-75
2021/01/24 10:13:26;;;;;;;10.88;9.43;;;1.40;99.90;;;;;;5046350;28;20511;-75
2021/01/24 10:15:53;;;;;;;8.85;7.95;;;1.40;99.90;;;;;;5005696;28;20049;-76
2021/01/24 10:18:20;;;;;;;9.45;8.00;;;1.50;99.90;;;;;;5023894;28;20482;-77
2021/01/24 10:20:47;;;;;;;10.23;9.07;;;1.40;99.90;;;;;;5006342;28;20132;-77
2021/01/24 10:23:16;;;;;;;10.20;8.20;;;1.40;99.90;;;;;;5008509;28;20072;-76
2021/01/24 10:25:43;;;;;;;10.20;8.88;;;1.50;99.90;;;;;;5010370;28;20046;-76
2021/01/24 10:28:09;;;;;;;12.20;9.20;;;1.50;99.90;;;;;;5012437;28;20131;-79
2021/01/24 10:30:35;;;;;;;16.05;11.63;;;1.50;99.90;;;;;;4995265;28;20064;-76
2021/01/24 10:33:02;;;;;;;11.65;10.25;;;1.50;99.90;;;;;;5020453;28;20058;-75
2021/01/24 10:35:28;;;;;;;12.52;11.13;;;1.50;99.90;;;;;;5010100;28;20057;-76
2021/01/24 10:37:55;;;;;;;13.35;11.07;;;1.50;99.90;;;;;;5011476;28;20053;-76
2021/01/24 10:40:22;;;;;;;13.50;10.85;;;1.60;99.90;;;;;;5028362;28;20065;-77
2021/01/24 10:42:48;;;;;;;12.45;9.88;;;1.60;99.90;;;;;;5027833;28;20100;-77
2021/01/24 10:45:15;;;;;;;10.02;9.00;;;1.70;99.90;;;;;;5032094;28;20557;-77
2021/01/24 10:47:41;;;;;;;14.48;10.15;;;1.70;99.90;;;;;;5065432;28;20076;-77
2021/01/24 10:50:09;;;;;;;10.90;9.68;;;1.80;99.90;;;;;;5029777;28;20056;-77
2021/01/24 10:52:35;;;;;;;11.32;9.77;;;1.80;99.90;;;;;;5026697;28;20088;-76
2021/01/24 10:55:02;;;;;;;12.55;11.38;;;1.70;99.90;;;;;;5011217;28;20136;-76
2021/01/24 10:57:30;;;;;;;14.43;12.70;;;1.70;99.90;;;;;;5010803;28;20566;-75
2021/01/24 10:59:56;;;;;;;15.68;13.80;;;1.80;99.90;;;;;;5010396;28;20056;-76
2021/01/24 11:02:23;;;;;;;13.40;12.00;;;1.80;99.90;;;;;;5025189;28;20132;-75
2021/01/24 11:04:49;;;;;;;15.00;10.80;;;1.70;99.90;;;;;;5026668;28;20104;-76
2021/01/24 11:07:16;;;;;;;12.85;11.52;;;1.60;99.90;;;;;;5025881;28;20057;-76
2021/01/24 11:09:44;;;;;;;13.40;11.95;;;1.70;99.90;;;;;;5027485;28;20049;-76
2021/01/24 11:12:11;;;;;;;16.10;13.70;;;1.70;99.90;;;;;;5004089;28;20447;-76
2021/01/24 11:14:38;;;;;;;13.82;12.32;;;1.70;99.90;;;;;;5006794;28;20503;-76
2021/01/24 11:17:05;;;;;;;15.32;13.35;;;1.80;99.90;;;;;;4990285;28;20081;-76
2021/01/24 11:19:31;;;;;;;18.55;14.50;;;1.80;99.90;;;;;;5006632;28;20054;-75
2021/01/24 11:21:58;;;;;;;36.65;17.55;;;1.80;99.90;;;;;;5022396;28;20464;-76
2021/01/24 11:24:24;;;;;;;48.85;17.85;;;1.80;99.90;;;;;;5023719;28;20445;-76
2021/01/24 11:26:51;;;;;;;46.63;19.13;;;1.80;99.90;;;;;;5007079;28;20511;-76
2021/01/24 11:29:18;;;;;;;130.10;25.73;;;1.60;99.90;;;;;;5009349;28;20077;-76
2021/01/24 11:31:44;;;;;;;100.35;24.10;;;1.60;99.90;;;;;;5021159;28;20058;-76
2021/01/24 11:34:11;;;;;;;170.10;29.65;;;1.60;99.90;;;;;;4998773;28;20606;-77
2021/01/24 11:36:38;;;;;;;302.67;44.53;;;1.60;99.90;;;;;;5008391;28;20057;-75
2021/01/24 11:39:05;;;;;;;337.08;47.15;;;1.50;99.90;;;;;;5025745;28;20063;-76
2021/01/24 11:41:32;;;;;;;495.23;61.83;;;1.50;99.90;;;;;;4992794;28;20123;-76
2021/01/24 11:43:59;;;;;;;446.95;50.70;;;1.40;99.90;;;;;;4992853;28;20115;-76
2021/01/24 11:46:26;;;;;;;411.52;54.30;;;1.30;99.90;;;;;;5048072;28;20165;-75
2021/01/24 11:48:52;;;;;;;393.52;50.95;;;1.30;99.90;;;;;;5039283;28;20731;-75
2021/01/24 11:51:19;;;;;;;476.23;60.95;;;1.20;99.90;;;;;;5010285;28;20073;-75
2021/01/24 11:53:45;;;;;;;419.25;60.67;;;1.20;99.90;;;;;;5027240;28;20057;-76
2021/01/24 11:56:12;;;;;;;385.13;57.92;;;1.30;99.90;;;;;;5002763;28;20046;-76
2021/01/24 11:58:38;;;;;;;420.00;68.28;;;1.30;99.90;;;;;;4999896;28;20056;-76
2021/01/24 12:01:05;;;;;;;340.98;50.70;;;1.30;99.90;;;;;;5011590;28;20187;-75
2021/01/24 12:03:32;;;;;;;527.65;75.25;;;1.20;99.90;;;;;;5002189;28;20049;-76
2021/01/24 12:05:58;;;;;;;483.52;82.63;;;1.30;99.90;;;;;;5008805;28;20057;-76
2021/01/24 12:08:26;;;;;;;611.25;93.25;;;1.20;99.90;;;;;;5009758;28;20644;-76
2021/01/24 12:10:53;;;;;;;588.00;88.07;;;1.10;99.90;;;;;;4994515;28;20057;-75
2021/01/24 12:13:19;;;;;;;386.90;69.93;;;1.00;99.90;;;;;;5010716;28;20049;-76
2021/01/24 12:15:45;;;;;;;516.70;85.10;;;1.00;99.90;;;;;;5010326;28;20045;-76
2021/01/24 12:18:12;;;;;;;451.33;76.00;;;0.90;99.90;;;;;;5010242;28;20053;-76
2021/01/24 12:20:39;;;;;;;631.33;104.60;;;1.00;99.90;;;;;;5010212;28;20156;-76
2021/01/24 12:23:05;;;;;;;559.80;90.88;;;0.90;99.90;;;;;;5009820;28;20107;-76
2021/01/24 12:25:32;;;;;;;657.25;105.90;;;0.90;99.90;;;;;;5010057;28;20155;-76
2021/01/24 12:27:59;;;;;;;725.63;112.25;;;1.00;99.90;;;;;;5007047;28;20049;-76
2021/01/24 12:30:25;;;;;;;733.28;116.32;;;1.00;99.90;;;;;;5006695;28;20103;-76
2021/01/24 12:32:52;;;;;;;661.42;104.72;;;1.00;99.90;;;;;;5018058;28;20057;-76
2021/01/24 12:35:19;;;;;;;611.40;99.05;;;1.00;99.90;;;;;;5001264;28;20436;-75
2021/01/24 12:37:45;;;;;;;695.00;109.15;;;1.10;99.90;;;;;;5007035;28;20080;-77
2021/01/24 12:40:13;;;;;;;577.78;90.70;;;1.20;99.90;;;;;;4989513;28;20108;-77
2021/01/24 12:42:39;;;;;;;770.55;118.93;;;1.20;99.90;;;;;;4989766;28;20077;-77
2021/01/24 12:45:06;;;;;;;702.65;109.38;;;1.20;99.90;;;;;;4979127;28;20051;-77